Flight Track Log - Related Links

Times and Time Zones

All times are in EDT time to prevent confusion due to time zone crossing. See the EZY1931 flight status page for this flight to view local times or setup timezone preferences in your user account.

Time Position Orientation Groundspeed Altitude Reporting Facility
EDT Latitude Longitude Course Direction KTS MPH feet Rate Location/Type
Sat 01:40:00 AM 52.9111 -0.4860 112° Southeast  Level Estimated
Sat 01:41:00 AM 52.8696 -0.3252 113° Southeast  Level Estimated
Sat 01:42:00 AM 52.8278 -0.1647 113° Southeast  Level Estimated
Sat 01:43:00 AM 52.7858 -0.0045 113° Southeast  Level Estimated
Sat 01:44:00 AM 52.7436 0.1553 114° Southeast  Level Estimated
Sat 01:45:00 AM 52.7012 0.3149 114° Southeast  Level Estimated
Sat 01:46:00 AM 52.6586 0.4742 114° Southeast  Level Estimated
Sat 01:47:00 AM 52.6157 0.6331 114° Southeast  Level Estimated
Sat 01:48:00 AM 52.5726 0.7917 114° Southeast  Level Estimated
Sat 01:49:00 AM 52.5294 0.9500 114° Southeast  Level Estimated
Sat 01:50:00 AM 52.4850 1.1114 114° Southeast  Level Estimated
Sat 01:51:00 AM 52.4403 1.2725 114° Southeast  Level Estimated
Sat 01:52:00 AM 52.3955 1.4332 115° Southeast  Level Estimated
Sat 01:53:00 AM 52.3504 1.5936 115° Southeast  Level Estimated
Sat 01:54:00 AM 52.3051 1.7537 115° Southeast  Level Estimated
Sat 01:55:00 AM 52.2596 1.9135 115° Southeast  Level Estimated
Sat 01:56:00 AM 52.2139 2.0729 115° Southeast  Level Estimated
Sat 01:57:00 AM 52.1679 2.2320 115° Southeast  Level Estimated
Sat 01:58:00 AM 52.1218 2.3908 115° Southeast  Level Estimated
Sat 01:59:00 AM 52.0754 2.5492 115° Southeast  Level Estimated
Sat 02:00:00 AM 52.0288 2.7073 116° Southeast  Level Estimated
Sat 02:01:00 AM 51.9821 2.8651 116° Southeast  Level Estimated
Sat 02:02:00 AM 51.9351 3.0226 116° Southeast  Level Estimated
Sat 02:03:00 AM 51.8878 3.1797 116° Southeast  Level Estimated
Sat 02:04:00 AM 51.8404 3.3365 116° Southeast  Level Estimated
Sat 02:05:00 AM 51.7928 3.4929 116° Southeast  Level Estimated
Sat 02:06:00 AM 51.7450 3.6491 116° Southeast  Level Estimated
Sat 02:07:00 AM 51.6969 3.8049 116° Southeast  Level Estimated
Sat 02:08:00 AM 51.6487 3.9603 117° Southeast  Level Estimated
Sat 02:09:00 AM 51.6003 4.1155 117° Southeast  Level Estimated
Sat 02:10:00 AM 51.5516 4.2703 117° Southeast  Level Estimated
Sat 02:11:00 AM 51.5028 4.4248 117° Southeast  Level Estimated
Sat 02:12:00 AM 51.4537 4.5789 117° Southeast  Level Estimated
Sat 02:13:00 AM 51.4044 4.7327 117° Southeast  Level Estimated
Sat 02:14:00 AM 51.3550 4.8862 117° Southeast  Level Estimated
Sat 02:15:00 AM 51.3053 5.0393 117° Southeast  Level Estimated
Sat 02:16:00 AM 51.2555 5.1922 117° Southeast  Level Estimated
Sat 02:17:00 AM 51.2054 5.3446 118° Southeast  Level Estimated
Sat 02:18:00 AM 51.1551 5.4968 118° Southeast  Level Estimated
Sat 02:19:00 AM 51.1047 5.6486 118° Southeast  Level Estimated
Sat 02:20:00 AM 51.0540 5.8001 118° Southeast  Level Estimated
Sat 02:21:00 AM 51.0032 5.9513 118° Southeast  Level Estimated
Sat 02:22:00 AM 50.9522 6.1021 118° Southeast  Level Estimated
Sat 02:23:00 AM 50.9009 6.2526 118° Southeast  Level Estimated
Sat 02:24:00 AM 50.8495 6.4028 118° Southeast  Level Estimated
Sat 02:25:00 AM 50.7979 6.5526 119° Southeast  Level Estimated
Sat 02:26:00 AM 50.7461 6.7021 119° Southeast  Level Estimated
Sat 02:27:00 AM 50.6941 6.8513 119° Southeast  Level Estimated
Sat 02:28:00 AM 50.6419 7.0001 119° Southeast  Level Estimated
Sat 02:29:00 AM 50.5895 7.1486 119° Southeast  Level Estimated
Sat 02:30:00 AM 50.5369 7.2968 119° Southeast  Level Estimated
Sat 02:31:00 AM 50.4842 7.4447 119° Southeast  Level Estimated
Sat 02:32:00 AM 50.4313 7.5922 119° Southeast  Level Estimated
Sat 02:33:00 AM 50.3781 7.7394 119° Southeast  Level Estimated
Sat 02:34:00 AM 50.3248 7.8862 120° Southeast  Level Estimated
Sat 02:35:00 AM 50.2713 8.0328 120° Southeast  Level Estimated
Sat 02:36:00 AM 50.2176 8.1790 120° Southeast  Level Estimated
Sat 02:37:00 AM 50.1638 8.3248 120° Southeast  Level Estimated
Sat 02:38:00 AM 50.1097 8.4704 120° Southeast  Level Estimated
Sat 02:39:00 AM 50.0555 8.6156 120° Southeast  Level Estimated
Sat 02:40:00 AM 50.0011 8.7605 120° Southeast  Level Estimated
Sat 02:41:00 AM 49.9465 8.9050 120° Southeast  Level Estimated
Sat 02:42:00 AM 49.8917 9.0492 120° Southeast  Level Estimated
Sat 02:43:00 AM 49.8368 9.1931 121° Southeast  Level Estimated
Sat 02:44:00 AM 49.7817 9.3367 121° Southeast  Level Estimated
Sat 02:45:00 AM 49.7263 9.4800 121° Southeast  Level Estimated
Sat 02:46:00 AM 49.6709 9.6229 121° Southeast  Level Estimated
Sat 02:47:00 AM 49.6152 9.7655 121° Southeast  Level Estimated
Sat 02:48:00 AM 49.5594 9.9077 121° Southeast  Level Estimated
Sat 02:49:00 AM 49.5034 10.0497 121° Southeast  Level Estimated
Sat 02:50:00 AM 49.4472 10.1913 121° Southeast  Level Estimated
Sat 02:51:00 AM 49.3909 10.3326 121° Southeast  Level Estimated
Sat 02:52:00 AM 49.3344 10.4736 122° Southeast  Level Estimated
Sat 02:53:00 AM 49.2777 10.6142 122° Southeast  Level Estimated
Sat 02:54:00 AM 49.2208 10.7545 122° Southeast  Level Estimated
Sat 02:55:00 AM 49.1638 10.8945 122° Southeast  Level Estimated
Sat 02:56:00 AM 49.1066 11.0342 122° Southeast  Level Estimated
Sat 02:57:00 AM 49.0492 11.1735 122° Southeast  Level Estimated
Sat 02:58:00 AM 48.9917 11.3126 122° Southeast  Level Estimated
Sat 02:59:00 AM 48.9340 11.4513 122° Southeast  Level Estimated
Sat 03:00:00 AM 48.8761 11.5897 122° Southeast  Level Estimated
Sat 03:01:00 AM 48.8181 11.7277 123° Southeast  Level Estimated
Sat 03:02:00 AM 48.7599 11.8655 123° Southeast  Level Estimated
Sat 03:03:00 AM 48.7015 12.0029 123° Southeast  Level Estimated
Sat 03:04:00 AM 48.6430 12.1400 123° Southeast  Level Estimated
Sat 03:05:00 AM 48.5843 12.2768 123° Southeast  Level Estimated
Sat 03:06:00 AM 48.5255 12.4133 123° Southeast  Level Estimated
Sat 03:07:00 AM 48.4664 12.5495 123° Southeast  Level Estimated
Sat 03:08:00 AM 48.4073 12.6853 123° Southeast  Level Estimated
Sat 03:09:00 AM 48.3479 12.8208 123° Southeast  Level Estimated
Sat 03:10:00 AM 48.2884 12.9560 123° Southeast  Level Estimated
Sat 03:11:00 AM 48.2288 13.0910 124° Southeast  Level Estimated
Sat 03:12:00 AM 48.1690 13.2255 124° Southeast  Level Estimated
Sat 03:13:00 AM 48.1091 13.3598 124° Southeast  Level Estimated
Sat 03:14:00 AM 48.0489 13.4937 124° Southeast  Level Estimated
Sat 03:15:00 AM 47.9887 13.6274 124° Southeast  Level Estimated
Sat 03:16:00 AM 47.9282 13.7607 124° Southeast  Level Estimated
Sat 03:17:00 AM 47.8677 13.8937 124° Southeast  Level Estimated
Sat 03:18:00 AM 47.8069 14.0265 124° Southeast  Level Estimated
Sat 03:19:00 AM 47.7461 14.1588 124° Southeast  Level Estimated
Sat 03:20:00 AM 47.6850 14.2909 124° Southeast  Level Estimated
Sat 03:21:00 AM 47.6238 14.4227 125° Southeast  Level Estimated
Sat 03:22:00 AM 47.5625 14.5542 125° Southeast  Level Estimated
Sat 03:23:00 AM 47.5010 14.6854 125° Southeast  Level Estimated
Sat 03:24:00 AM 47.4394 14.8162 125° Southeast  Level Estimated
Sat 03:25:00 AM 47.3776 14.9467 125° Southeast  Level Estimated
Sat 03:26:00 AM 47.3156 15.0770 125° Southeast  Level Estimated
Sat 03:27:00 AM 47.2536 15.2069 125° Southeast  Level Estimated
Sat 03:28:00 AM 47.1913 15.3366 125° Southeast  Level Estimated
Sat 03:29:00 AM 47.1290 15.4659 125° Southeast  Level Estimated
Sat 03:30:00 AM 47.0664 15.5949 125° Southeast  Level Estimated
Sat 03:31:00 AM 47.0038 15.7236 125° Southeast  Level Estimated
Sat 03:32:00 AM 46.9410 15.8520 126° Southeast  Level Estimated
Sat 03:33:00 AM 46.8780 15.9802 126° Southeast  Level Estimated
Sat 03:34:00 AM 46.8149 16.1080 126° Southeast  Level Estimated
Sat 03:35:00 AM 46.7517 16.2355 126° Southeast  Level Estimated
Sat 03:36:00 AM 46.6883 16.3627 126° Southeast  Level Estimated
Sat 03:37:00 AM 46.6248 16.4897 126° Southeast  Level Estimated
Sat 03:38:00 AM 46.5611 16.6163 126° Southeast  Level Estimated
Sat 03:39:00 AM 46.4973 16.7426 126° Southeast  Level Estimated
Sat 03:40:00 AM 46.4334 16.8686 126° Southeast  Level Estimated
Sat 03:41:00 AM 46.3693 16.9944 126° Southeast  Level Estimated
Sat 03:42:00 AM 46.3051 17.1198 127° Southeast  Level Estimated
Sat 03:43:00 AM 46.2408 17.2449 127° Southeast  Level Estimated
Sat 03:44:00 AM 46.1763 17.3698 127° Southeast  Level Estimated
Sat 03:45:00 AM 46.1117 17.4943 127° Southeast  Level Estimated
Sat 03:46:00 AM 46.0469 17.6186 127° Southeast  Level Estimated
Sat 03:47:00 AM 45.9820 17.7426 127° Southeast  Level Estimated
Sat 03:48:00 AM 45.9170 17.8662 127° Southeast  Level Estimated
Sat 03:49:00 AM 45.8518 17.9896 127° Southeast  Level Estimated
Sat 03:50:00 AM 45.7865 18.1127 127° Southeast  Level Estimated
Sat 03:51:00 AM 45.7211 18.2356 127° Southeast  Level Estimated
Sat 03:52:00 AM 45.6556 18.3581 127° Southeast  Level Estimated
Sat 03:53:00 AM 45.5899 18.4803 127° Southeast  Level Estimated
Sat 03:54:00 AM 45.5241 18.6023 128° Southeast  Level Estimated
Sat 03:55:00 AM 45.4581 18.7240 128° Southeast  Level Estimated
Sat 03:56:00 AM 45.3921 18.8454 128° Southeast  Level Estimated
Sat 03:57:00 AM 45.3259 18.9664 128° Southeast  Level Estimated
Sat 03:58:00 AM 45.2595 19.0873 128° Southeast  Level Estimated
Sat 03:59:00 AM 45.1931 19.2078 128° Southeast  Level Estimated
Sat 04:00:00 AM 45.1265 19.3281 128° Southeast  Level Estimated
Sat 04:01:00 AM 45.0598 19.4480 128° Southeast  Level Estimated
Sat 04:02:00 AM 44.9930 19.5677 128° Southeast  Level Estimated
Sat 04:03:00 AM 44.9260 19.6871 128° Southeast  Level Estimated
Sat 04:04:00 AM 44.8589 19.8063 128° Southeast  Level Estimated
Sat 04:05:00 AM 44.7917 19.9251 129° Southeast  Level Estimated
Sat 04:06:00 AM 44.7244 20.0437 129° Southeast  Level Estimated
Sat 04:07:00 AM 44.6570 20.1620 129° Southeast  Level Estimated
Sat 04:08:00 AM 44.5894 20.2801 129° Southeast  Level Estimated
Sat 04:09:00 AM 44.5217 20.3978 129° Southeast  Level Estimated
Sat 04:10:00 AM 44.4539 20.5153 129° Southeast  Level Estimated
Sat 04:11:00 AM 44.3860 20.6325 129° Southeast  Level Estimated
Sat 04:12:00 AM 44.3179 20.7495 129° Southeast  Level Estimated
Sat 04:13:00 AM 44.2497 20.8661 129° Southeast  Level Estimated
Sat 04:14:00 AM 44.1814 20.9825 129° Southeast  Level Estimated
Sat 04:15:00 AM 44.1130 21.0986 129° Southeast  Level Estimated
Sat 04:16:00 AM 44.0445 21.2145 129° Southeast  Level Estimated
Sat 04:17:00 AM 43.9759 21.3301 130° Southeast  Level Estimated
Sat 04:18:00 AM 43.9071 21.4454 130° Southeast  Level Estimated
Sat 04:19:00 AM 43.8382 21.5605 130° Southeast  Level Estimated
Sat 04:20:00 AM 43.7704 21.6735 130° Southeast  Level Estimated
Sat 04:21:00 AM 43.7024 21.7862 130° Southeast  Level Estimated
Sat 04:22:00 AM 43.6342 21.8986 130° Southeast  Level Estimated
Sat 04:23:00 AM 43.5660 22.0108 130° Southeast  Level Estimated
Sat 04:24:00 AM 43.4977 22.1228 130° Southeast  Level Estimated
Sat 04:25:00 AM 43.4292 22.2345 130° Southeast  Level Estimated
Sat 04:26:00 AM 43.3607 22.3459 130° Southeast  Level Estimated
Sat 04:27:00 AM 43.2920 22.4571 130° Southeast  Level Estimated
Sat 04:28:00 AM 43.2233 22.5681 130° Southeast  Level Estimated
Sat 04:29:00 AM 43.1544 22.6787 130° Southeast  Level Estimated
Sat 04:30:00 AM 43.0854 22.7892 131° Southeast  Level Estimated
Sat 04:31:00 AM 43.0163 22.8994 131° Southeast  Level Estimated
Sat 04:32:00 AM 42.9471 23.0093 131° Southeast  Level Estimated
Sat 04:33:00 AM 42.8778 23.1190 131° Southeast  Level Estimated
Sat 04:34:00 AM 42.8084 23.2285 131° Southeast  Level Estimated
Sat 04:35:00 AM 42.7389 23.3377 131° Southeast  Level Estimated
Sat 04:36:00 AM 42.6952 23.4062 131° Southeast  Level Estimated
Sat 04:37:00 AM 42.6952 23.4062 331° Northwest  Level Estimated
Sat 04:38:00 AM 42.6952 23.4062 331° Northwest  Level Estimated
Sat 04:39:00 AM 42.6952 23.4062 331° Northwest  Level Estimated
Sat 04:40:00 AM 42.6952 23.4062 331° Northwest  Level Estimated
Sat 04:41:00 AM 42.6952 23.4062 331° Northwest  Level Estimated
Sat 04:42:00 AM 42.6952 23.4062 331° Northwest  Level Estimated
Sat 04:43:00 AM 42.6952 23.4062 331° Northwest  Level Estimated
Sat 04:44:00 AM 42.6952 23.4062 331° Northwest  Level Estimated
Sat 04:45:00 AM 42.6952 23.4062 331° Northwest  Level Estimated
Sat 04:46:00 AM 42.6952 23.4062 331° Northwest  Level Estimated
Sat 04:47:00 AM 42.6952 23.4062 331° Northwest  Level Estimated
Sat 04:48:00 AM 42.6952 23.4062 331° Northwest  Level Estimated
Sat 04:49:00 AM 42.6952 23.4062 331° Northwest  Level Estimated
Sat 04:50:00 AM 42.6952 23.4062 331° Northwest  Level Estimated
Sat 04:51:00 AM 42.6952 23.4062 331° Northwest  Level Estimated
Sat 04:52:00 AM 42.6952 23.4062 331° Northwest  Level Estimated

Login

Don't have an account? Register now (free) for customized features, flight alerts, and more!